sensor_id;sensor_type;location;lat;lon;timestamp;pressure;altitude;pressure_sealevel;temperature;humidity
8641;BME280;4358;42.100;25.222;2023-05-12T00:01:21;100566.00;;;11.25;100.00
8641;BME280;4358;42.100;25.222;2023-05-12T00:03:48;100567.28;;;11.18;100.00
8641;BME280;4358;42.100;25.222;2023-05-12T00:06:19;100564.59;;;11.03;100.00
8641;BME280;4358;42.100;25.222;2023-05-12T00:08:46;100565.03;;;10.96;100.00
8641;BME280;4358;42.100;25.222;2023-05-12T00:11:13;100551.81;;;10.94;100.00
8641;BME280;4358;42.100;25.222;2023-05-12T00:13:40;100559.63;;;10.97;100.00
8641;BME280;4358;42.100;25.222;2023-05-12T00:16:07;100563.31;;;10.95;100.00
8641;BME280;4358;42.100;25.222;2023-05-12T00:18:34;100558.78;;;10.97;100.00
8641;BME280;4358;42.100;25.222;2023-05-12T00:21:01;100560.38;;;10.99;100.00
8641;BME280;4358;42.100;25.222;2023-05-12T00:23:29;100561.06;;;11.03;100.00
8641;BME280;4358;42.100;25.222;2023-05-12T00:25:56;100555.66;;;11.04;100.00
8641;BME280;4358;42.100;25.222;2023-05-12T00:28:22;100556.03;;;10.98;100.00
8641;BME280;4358;42.100;25.222;2023-05-12T00:30:49;100558.78;;;10.97;100.00
8641;BME280;4358;42.100;25.222;2023-05-12T00:33:16;100559.72;;;10.96;100.00
8641;BME280;4358;42.100;25.222;2023-05-12T00:35:43;100556.47;;;10.91;100.00
8641;BME280;4358;42.100;25.222;2023-05-12T00:38:10;100562.63;;;10.91;100.00
8641;BME280;4358;42.100;25.222;2023-05-12T00:40:39;100559.59;;;10.83;100.00
8641;BME280;4358;42.100;25.222;2023-05-12T00:43:06;100559.75;;;10.80;100.00
8641;BME280;4358;42.100;25.222;2023-05-12T00:45:33;100564.69;;;10.86;100.00
8641;BME280;4358;42.100;25.222;2023-05-12T00:48:00;100560.59;;;10.81;100.00
8641;BME280;4358;42.100;25.222;2023-05-12T00:50:27;100566.00;;;10.79;100.00
8641;BME280;4358;42.100;25.222;2023-05-12T00:52:54;100559.59;;;10.83;100.00
8641;BME280;4358;42.100;25.222;2023-05-12T00:55:21;100568.28;;;10.85;100.00
8641;BME280;4358;42.100;25.222;2023-05-12T00:57:49;100566.56;;;10.84;100.00
8641;BME280;4358;42.100;25.222;2023-05-12T01:00:16;100565.03;;;10.80;100.00
8641;BME280;4358;42.100;25.222;2023-05-12T01:02:43;100568.50;;;10.82;100.00
8641;BME280;4358;42.100;25.222;2023-05-12T01:05:10;100565.03;;;10.80;100.00
8641;BME280;4358;42.100;25.222;2023-05-12T01:07:38;100563.88;;;10.70;100.00
8641;BME280;4358;42.100;25.222;2023-05-12T01:10:16;100566.78;;;10.66;100.00
8641;BME280;4358;42.100;25.222;2023-05-12T01:12:43;100564.56;;;10.58;100.00
8641;BME280;4358;42.100;25.222;2023-05-12T01:15:11;100570.13;;;10.53;100.00
8641;BME280;4358;42.100;25.222;2023-05-12T01:17:41;100563.03;;;10.38;100.00
8641;BME280;4358;42.100;25.222;2023-05-12T01:20:11;100573.47;;;10.41;100.00
8641;BME280;4358;42.100;25.222;2023-05-12T01:22:38;100577.75;;;10.44;100.00
8641;BME280;4358;42.100;25.222;2023-05-12T01:25:08;100576.22;;;10.40;100.00
8641;BME280;4358;42.100;25.222;2023-05-12T01:27:39;100575.94;;;10.29;100.00
8641;BME280;4358;42.100;25.222;2023-05-12T01:30:07;100583.19;;;10.09;100.00
8641;BME280;4358;42.100;25.222;2023-05-12T01:32:34;100576.56;;;10.01;100.00
8641;BME280;4358;42.100;25.222;2023-05-12T01:35:01;100568.25;;;9.91;100.00
8641;BME280;4358;42.100;25.222;2023-05-12T01:37:28;100576.88;;;9.62;100.00
8641;BME280;4358;42.100;25.222;2023-05-12T01:39:54;100580.34;;;9.47;100.00
8641;BME280;4358;42.100;25.222;2023-05-12T01:42:21;100576.97;;;9.60;100.00
8641;BME280;4358;42.100;25.222;2023-05-12T01:44:49;100581.53;;;9.74;100.00
8641;BME280;4358;42.100;25.222;2023-05-12T01:47:16;100570.53;;;9.82;100.00
8641;BME280;4358;42.100;25.222;2023-05-12T01:49:43;100580.88;;;9.86;100.00
8641;BME280;4358;42.100;25.222;2023-05-12T01:52:10;100575.59;;;9.86;100.00
8641;BME280;4358;42.100;25.222;2023-05-12T01:54:37;100588.53;;;9.75;100.00
8641;BME280;4358;42.100;25.222;2023-05-12T01:57:04;100585.91;;;9.58;100.00
8641;BME280;4358;42.100;25.222;2023-05-12T01:59:31;100581.03;;;9.50;100.00
8641;BME280;4358;42.100;25.222;2023-05-12T02:01:59;100585.63;;;9.47;100.00
8641;BME280;4358;42.100;25.222;2023-05-12T02:04:26;100579.16;;;9.35;100.00
8641;BME280;4358;42.100;25.222;2023-05-12T02:06:53;100579.09;;;9.37;100.00
8641;BME280;4358;42.100;25.222;2023-05-12T02:09:20;100572.03;;;9.53;100.00
8641;BME280;4358;42.100;25.222;2023-05-12T02:11:48;100571.28;;;9.51;100.00
8641;BME280;4358;42.100;25.222;2023-05-12T02:14:14;100579.16;;;9.52;100.00
8641;BME280;4358;42.100;25.222;2023-05-12T02:16:41;100571.97;;;9.54;100.00
8641;BME280;4358;42.100;25.222;2023-05-12T02:19:09;100570.81;;;9.43;100.00
8641;BME280;4358;42.100;25.222;2023-05-12T02:21:36;100576.09;;;9.43;100.00
8641;BME280;4358;42.100;25.222;2023-05-12T02:24:03;100574.09;;;9.30;100.00
8641;BME280;4358;42.100;25.222;2023-05-12T02:26:30;100567.41;;;9.41;100.00
8641;BME280;4358;42.100;25.222;2023-05-12T02:28:57;100569.19;;;9.57;100.00
8641;BME280;4358;42.100;25.222;2023-05-12T02:31:24;100578.59;;;9.63;100.00
8641;BME280;4358;42.100;25.222;2023-05-12T02:33:50;100574.06;;;9.65;100.00
8641;BME280;4358;42.100;25.222;2023-05-12T02:36:19;100576.72;;;9.65;100.00
8641;BME280;4358;42.100;25.222;2023-05-12T02:38:45;100573.31;;;9.63;100.00
8641;BME280;4358;42.100;25.222;2023-05-12T02:41:13;100578.06;;;9.56;100.00
8641;BME280;4358;42.100;25.222;2023-05-12T02:43:40;100579.63;;;9.43;100.00
8641;BME280;4358;42.100;25.222;2023-05-12T02:46:06;100573.50;;;9.25;100.00
8641;BME280;4358;42.100;25.222;2023-05-12T02:48:33;100577.22;;;9.39;100.00
8641;BME280;4358;42.100;25.222;2023-05-12T02:51:00;100568.03;;;9.46;100.00
8641;BME280;4358;42.100;25.222;2023-05-12T02:53:28;100536.22;;;9.28;100.00
8641;BME280;4358;42.100;25.222;2023-05-12T02:55:55;100576.88;;;9.62;100.00
8641;BME280;4358;42.100;25.222;2023-05-12T02:58:22;100570.72;;;9.61;100.00
8641;BME280;4358;42.100;25.222;2023-05-12T03:00:48;100581.38;;;9.77;100.00
8641;BME280;4358;42.100;25.222;2023-05-12T03:03:15;100581.13;;;9.82;100.00
8641;BME280;4358;42.100;25.222;2023-05-12T03:05:42;100578.31;;;9.85;100.00
8641;BME280;4358;42.100;25.222;2023-05-12T03:08:09;100586.88;;;9.90;100.00
8641;BME280;4358;42.100;25.222;2023-05-12T03:10:37;100585.69;;;9.95;100.00
8641;BME280;4358;42.100;25.222;2023-05-12T03:13:04;100581.00;;;10.00;100.00
8641;BME280;4358;42.100;25.222;2023-05-12T03:15:30;100583.38;;;10.05;100.00
8641;BME280;4358;42.100;25.222;2023-05-12T03:17:57;100587.25;;;9.99;100.00
8641;BME280;4358;42.100;25.222;2023-05-12T03:20:24;100594.31;;;9.83;100.00
8641;BME280;4358;42.100;25.222;2023-05-12T03:22:51;100595.94;;;9.86;100.00
8641;BME280;4358;42.100;25.222;2023-05-12T03:25:18;100597.66;;;9.87;100.00
8641;BME280;4358;42.100;25.222;2023-05-12T03:27:46;100591.31;;;9.89;100.00
8641;BME280;4358;42.100;25.222;2023-05-12T03:30:13;100592.72;;;9.96;100.00
8641;BME280;4358;42.100;25.222;2023-05-12T03:32:40;100599.56;;;10.00;100.00
8641;BME280;4358;42.100;25.222;2023-05-12T03:35:08;100588.78;;;9.70;100.00
8641;BME280;4358;42.100;25.222;2023-05-12T03:37:35;100601.34;;;9.67;100.00
8641;BME280;4358;42.100;25.222;2023-05-12T03:40:02;100613.63;;;9.85;100.00
8641;BME280;4358;42.100;25.222;2023-05-12T03:42:29;100609.66;;;9.94;100.00
8641;BME280;4358;42.100;25.222;2023-05-12T03:44:57;100607.47;;;9.85;100.00
8641;BME280;4358;42.100;25.222;2023-05-12T03:47:24;100605.53;;;9.88;100.00
8641;BME280;4358;42.100;25.222;2023-05-12T03:49:51;100614.09;;;9.93;100.00
8641;BME280;4358;42.100;25.222;2023-05-12T03:52:17;100622.34;;;10.04;100.00
8641;BME280;4358;42.100;25.222;2023-05-12T03:54:47;100622.06;;;9.93;100.00
8641;BME280;4358;42.100;25.222;2023-05-12T03:57:14;100616.19;;;10.04;100.00
8641;BME280;4358;42.100;25.222;2023-05-12T03:59:42;100625.94;;;10.03;100.00
8641;BME280;4358;42.100;25.222;2023-05-12T04:02:10;100631.56;;;9.97;100.00
8641;BME280;4358;42.100;25.222;2023-05-12T04:04:37;100621.34;;;9.90;100.00
8641;BME280;4358;42.100;25.222;2023-05-12T04:07:04;100633.22;;;9.83;100.00
8641;BME280;4358;42.100;25.222;2023-05-12T04:09:31;100622.38;;;9.87;100.00
8641;BME280;4358;42.100;25.222;2023-05-12T04:11:58;100630.00;;;9.93;100.00
8641;BME280;4358;42.100;25.222;2023-05-12T04:14:25;100621.13;;;9.94;100.00
8641;BME280;4358;42.100;25.222;2023-05-12T04:16:58;100632.78;;;10.07;100.00
8641;BME280;4358;42.100;25.222;2023-05-12T04:19:26;100627.66;;;10.04;100.00
8641;BME280;4358;42.100;25.222;2023-05-12T04:21:53;100625.44;;;10.12;100.00
8641;BME280;4358;42.100;25.222;2023-05-12T04:24:19;100628.25;;;10.09;100.00
8641;BME280;4358;42.100;25.222;2023-05-12T04:26:48;100623.56;;;10.14;100.00
8641;BME280;4358;42.100;25.222;2023-05-12T04:29:15;100624.34;;;10.16;100.00
8641;BME280;4358;42.100;25.222;2023-05-12T04:31:42;100627.28;;;10.10;100.00
8641;BME280;4358;42.100;25.222;2023-05-12T04:34:09;100627.16;;;10.13;100.00
8641;BME280;4358;42.100;25.222;2023-05-12T04:36:38;100595.81;;;10.04;100.00
8641;BME280;4358;42.100;25.222;2023-05-12T04:39:05;100629.78;;;10.31;100.00
8641;BME280;4358;42.100;25.222;2023-05-12T04:41:32;100633.81;;;10.38;100.00
8641;BME280;4358;42.100;25.222;2023-05-12T04:43:58;100637.66;;;10.48;100.00
8641;BME280;4358;42.100;25.222;2023-05-12T04:46:25;100635.13;;;10.62;100.00
8641;BME280;4358;42.100;25.222;2023-05-12T04:48:52;100640.53;;;10.76;100.00
8641;BME280;4358;42.100;25.222;2023-05-12T04:51:19;100635.13;;;10.78;100.00
8641;BME280;4358;42.100;25.222;2023-05-12T04:53:47;100638.88;;;10.89;100.00
8641;BME280;4358;42.100;25.222;2023-05-12T04:56:14;100634.75;;;10.99;100.00
8641;BME280;4358;42.100;25.222;2023-05-12T04:58:41;100632.88;;;11.01;100.00
8641;BME280;4358;42.100;25.222;2023-05-12T05:01:07;100634.66;;;11.01;100.00
8641;BME280;4358;42.100;25.222;2023-05-12T05:03:36;100622.56;;;11.11;100.00
8641;BME280;4358;42.100;25.222;2023-05-12T05:06:03;100622.84;;;11.36;100.00
8641;BME280;4358;42.100;25.222;2023-05-12T05:08:30;100634.47;;;11.50;100.00
8641;BME280;4358;42.100;25.222;2023-05-12T05:10:58;100622.72;;;11.54;100.00
8641;BME280;4358;42.100;25.222;2023-05-12T05:13:25;100631.19;;;11.60;100.00
8641;BME280;4358;42.100;25.222;2023-05-12T05:15:52;100630.03;;;11.50;100.00
8641;BME280;4358;42.100;25.222;2023-05-12T05:18:20;100618.28;;;11.68;100.00
8641;BME280;4358;42.100;25.222;2023-05-12T05:20:46;100633.25;;;11.99;100.00
8641;BME280;4358;42.100;25.222;2023-05-12T05:23:13;100643.25;;;12.10;100.00
8641;BME280;4358;42.100;25.222;2023-05-12T05:25:40;100641.94;;;12.17;100.00
8641;BME280;4358;42.100;25.222;2023-05-12T05:28:08;100642.88;;;12.30;100.00
8641;BME280;4358;42.100;25.222;2023-05-12T05:30:35;100649.34;;;12.40;100.00
8641;BME280;4358;42.100;25.222;2023-05-12T05:33:02;100651.81;;;12.43;100.00
8641;BME280;4358;42.100;25.222;2023-05-12T05:35:31;100648.50;;;12.40;100.00
8641;BME280;4358;42.100;25.222;2023-05-12T05:37:58;100655.03;;;12.48;100.00
8641;BME280;4358;42.100;25.222;2023-05-12T05:40:25;100656.94;;;12.60;100.00
8641;BME280;4358;42.100;25.222;2023-05-12T05:42:52;100665.41;;;12.53;100.00
8641;BME280;4358;42.100;25.222;2023-05-12T05:45:20;100662.25;;;12.60;100.00
8641;BME280;4358;42.100;25.222;2023-05-12T05:47:46;100653.13;;;12.64;100.00
8641;BME280;4358;42.100;25.222;2023-05-12T05:50:16;100668.53;;;12.59;100.00
8641;BME280;4358;42.100;25.222;2023-05-12T05:52:42;100659.34;;;12.78;100.00
8641;BME280;4358;42.100;25.222;2023-05-12T05:55:09;100663.97;;;13.02;100.00
8641;BME280;4358;42.100;25.222;2023-05-12T05:57:36;100660.91;;;13.23;100.00
8641;BME280;4358;42.100;25.222;2023-05-12T06:00:04;100656.66;;;13.33;100.00
8641;BME280;4358;42.100;25.222;2023-05-12T06:02:33;100656.72;;;13.58;100.00
8641;BME280;4358;42.100;25.222;2023-05-12T06:05:00;100666.38;;;13.86;100.00
8641;BME280;4358;42.100;25.222;2023-05-12T06:07:27;100665.53;;;13.98;100.00
8641;BME280;4358;42.100;25.222;2023-05-12T06:09:54;100669.38;;;13.94;100.00
8641;BME280;4358;42.100;25.222;2023-05-12T06:12:20;100671.47;;;13.64;100.00
8641;BME280;4358;42.100;25.222;2023-05-12T06:14:47;100672.50;;;13.61;100.00
8641;BME280;4358;42.100;25.222;2023-05-12T06:17:14;100675.91;;;13.50;100.00
8641;BME280;4358;42.100;25.222;2023-05-12T06:19:42;100670.09;;;13.31;100.00
8641;BME280;4358;42.100;25.222;2023-05-12T06:22:12;100666.63;;;13.43;100.00
8641;BME280;4358;42.100;25.222;2023-05-12T06:24:38;100672.31;;;13.64;100.00
8641;BME280;4358;42.100;25.222;2023-05-12T06:27:05;100678.22;;;13.94;100.00
8641;BME280;4358;42.100;25.222;2023-05-12T06:29:32;100683.47;;;14.21;100.00
8641;BME280;4358;42.100;25.222;2023-05-12T06:31:59;100667.28;;;14.37;100.00
8641;BME280;4358;42.100;25.222;2023-05-12T06:34:26;100683.25;;;14.62;100.00
8641;BME280;4358;42.100;25.222;2023-05-12T06:36:55;100684.75;;;14.66;100.00
8641;BME280;4358;42.100;25.222;2023-05-12T06:39:22;100695.81;;;14.49;100.00
8641;BME280;4358;42.100;25.222;2023-05-12T06:41:49;100694.19;;;14.47;100.00
8641;BME280;4358;42.100;25.222;2023-05-12T06:44:16;100678.78;;;14.63;100.00
8641;BME280;4358;42.100;25.222;2023-05-12T06:46:43;100696.47;;;14.76;100.00
8641;BME280;4358;42.100;25.222;2023-05-12T06:49:10;100688.00;;;14.95;100.00
8641;BME280;4358;42.100;25.222;2023-05-12T06:51:37;100698.50;;;15.22;100.00
8641;BME280;4358;42.100;25.222;2023-05-12T06:54:05;100693.31;;;15.32;100.00
8641;BME280;4358;42.100;25.222;2023-05-12T06:56:32;100691.53;;;15.56;100.00
8641;BME280;4358;42.100;25.222;2023-05-12T06:58:58;100694.69;;;15.61;100.00
8641;BME280;4358;42.100;25.222;2023-05-12T07:01:27;100693.19;;;15.70;100.00
8641;BME280;4358;42.100;25.222;2023-05-12T07:03:54;100692.47;;;15.79;100.00
8641;BME280;4358;42.100;25.222;2023-05-12T07:06:21;100683.84;;;15.86;100.00
8641;BME280;4358;42.100;25.222;2023-05-12T07:08:47;100691.03;;;15.86;100.00
8641;BME280;4358;42.100;25.222;2023-05-12T07:11:15;100695.84;;;16.16;100.00
8641;BME280;4358;42.100;25.222;2023-05-12T07:13:44;100690.50;;;16.16;100.00
8641;BME280;4358;42.100;25.222;2023-05-12T07:16:11;100682.59;;;16.25;100.00
8641;BME280;4358;42.100;25.222;2023-05-12T07:18:38;100694.03;;;16.38;100.00
8641;BME280;4358;42.100;25.222;2023-05-12T07:21:05;100690.50;;;16.16;100.00
8641;BME280;4358;42.100;25.222;2023-05-12T07:23:32;100685.69;;;15.97;100.00
8641;BME280;4358;42.100;25.222;2023-05-12T07:25:59;100690.16;;;15.74;100.00
8641;BME280;4358;42.100;25.222;2023-05-12T07:28:28;100690.28;;;15.84;100.00
8641;BME280;4358;42.100;25.222;2023-05-12T07:30:56;100684.84;;;15.85;100.00
8641;BME280;4358;42.100;25.222;2023-05-12T07:33:23;100690.44;;;15.93;100.00
8641;BME280;4358;42.100;25.222;2023-05-12T07:35:50;100691.00;;;16.21;99.84
8641;BME280;4358;42.100;25.222;2023-05-12T07:38:17;100695.06;;;16.48;99.51
8641;BME280;4358;42.100;25.222;2023-05-12T07:40:43;100685.41;;;16.57;98.62
8641;BME280;4358;42.100;25.222;2023-05-12T07:43:10;100696.16;;;16.68;100.00
8641;BME280;4358;42.100;25.222;2023-05-12T07:45:39;100685.94;;;16.73;98.84
8641;BME280;4358;42.100;25.222;2023-05-12T07:48:05;100686.88;;;17.06;99.56
8641;BME280;4358;42.100;25.222;2023-05-12T07:50:32;100686.16;;;16.59;100.00
8641;BME280;4358;42.100;25.222;2023-05-12T07:52:59;100692.16;;;16.74;100.00
8641;BME280;4358;42.100;25.222;2023-05-12T07:55:26;100683.34;;;16.94;99.82
8641;BME280;4358;42.100;25.222;2023-05-12T07:57:52;100685.66;;;16.99;95.20
8641;BME280;4358;42.100;25.222;2023-05-12T08:00:20;100678.38;;;16.78;95.35
8641;BME280;4358;42.100;25.222;2023-05-12T08:02:48;100682.63;;;16.81;94.34
8641;BME280;4358;42.100;25.222;2023-05-12T08:05:15;100687.81;;;17.16;92.38
8641;BME280;4358;42.100;25.222;2023-05-12T08:07:41;100678.16;;;17.24;92.49
8641;BME280;4358;42.100;25.222;2023-05-12T08:10:09;100670.56;;;16.86;94.00
8641;BME280;4358;42.100;25.222;2023-05-12T08:12:37;100669.81;;;16.96;94.61
8641;BME280;4358;42.100;25.222;2023-05-12T08:15:05;100679.31;;;17.11;93.85
8641;BME280;4358;42.100;25.222;2023-05-12T08:17:32;100677.78;;;17.29;91.66
8641;BME280;4358;42.100;25.222;2023-05-12T08:20:01;100673.09;;;17.42;91.98
8641;BME280;4358;42.100;25.222;2023-05-12T08:22:29;100672.06;;;17.54;90.69
8641;BME280;4358;42.100;25.222;2023-05-12T08:24:56;100676.22;;;17.58;89.69
8641;BME280;4358;42.100;25.222;2023-05-12T08:27:23;100673.38;;;17.71;88.83
8641;BME280;4358;42.100;25.222;2023-05-12T08:29:50;100670.91;;;17.47;90.45
8641;BME280;4358;42.100;25.222;2023-05-12T08:32:16;100673.44;;;17.49;89.87
8641;BME280;4358;42.100;25.222;2023-05-12T08:34:43;100672.84;;;17.45;91.11
8641;BME280;4358;42.100;25.222;2023-05-12T08:37:12;100652.56;;;17.20;90.14
8641;BME280;4358;42.100;25.222;2023-05-12T08:39:39;100667.88;;;17.41;89.45
8641;BME280;4358;42.100;25.222;2023-05-12T08:42:13;100663.81;;;17.46;89.22
8641;BME280;4358;42.100;25.222;2023-05-12T08:44:44;100669.53;;;17.85;87.86
8641;BME280;4358;42.100;25.222;2023-05-12T08:47:12;100657.84;;;18.16;84.72
8641;BME280;4358;42.100;25.222;2023-05-12T08:49:41;100658.44;;;18.19;82.36
8641;BME280;4358;42.100;25.222;2023-05-12T08:52:12;100654.16;;;18.17;83.21
8641;BME280;4358;42.100;25.222;2023-05-12T08:54:43;100655.34;;;18.24;83.34
8641;BME280;4358;42.100;25.222;2023-05-12T08:57:11;100649.41;;;18.20;82.13
8641;BME280;4358;42.100;25.222;2023-05-12T08:59:38;100657.09;;;18.35;81.38
8641;BME280;4358;42.100;25.222;2023-05-12T09:02:09;100644.09;;;18.60;80.33
8641;BME280;4358;42.100;25.222;2023-05-12T09:04:36;100648.09;;;18.76;79.21
8641;BME280;4358;42.100;25.222;2023-05-12T09:07:04;100640.63;;;18.89;79.82
8641;BME280;4358;42.100;25.222;2023-05-12T09:09:35;100641.81;;;19.15;79.35
8641;BME280;4358;42.100;25.222;2023-05-12T09:12:02;100627.66;;;19.32;77.83
8641;BME280;4358;42.100;25.222;2023-05-12T09:14:33;100636.34;;;19.45;76.87
8641;BME280;4358;42.100;25.222;2023-05-12T09:17:02;100630.53;;;19.50;76.86
8641;BME280;4358;42.100;25.222;2023-05-12T09:19:30;100636.22;;;19.57;77.26
8641;BME280;4358;42.100;25.222;2023-05-12T09:21:57;100632.34;;;19.78;75.54
8641;BME280;4358;42.100;25.222;2023-05-12T09:24:34;100629.97;;;19.66;71.89
8641;BME280;4358;42.100;25.222;2023-05-12T09:27:01;100627.47;;;18.95;74.86
8641;BME280;4358;42.100;25.222;2023-05-12T09:29:29;100626.69;;;18.65;75.99
8641;BME280;4358;42.100;25.222;2023-05-12T09:31:59;100613.41;;;18.73;76.16
8641;BME280;4358;42.100;25.222;2023-05-12T09:34:27;100624.34;;;19.00;75.67
8641;BME280;4358;42.100;25.222;2023-05-12T09:36:55;100624.28;;;19.40;74.73
8641;BME280;4358;42.100;25.222;2023-05-12T09:39:22;100625.59;;;19.45;73.85
8641;BME280;4358;42.100;25.222;2023-05-12T09:41:51;100610.09;;;19.38;74.66
8641;BME280;4358;42.100;25.222;2023-05-12T09:44:19;100622.31;;;19.71;74.37
8641;BME280;4358;42.100;25.222;2023-05-12T09:46:47;100620.88;;;19.48;74.76
8641;BME280;4358;42.100;25.222;2023-05-12T09:49:18;100621.00;;;19.75;74.23
8641;BME280;4358;42.100;25.222;2023-05-12T09:51:45;100623.09;;;20.00;74.39
8641;BME280;4358;42.100;25.222;2023-05-12T09:54:23;100632.47;;;19.96;72.17
8641;BME280;4358;42.100;25.222;2023-05-12T09:56:56;100625.81;;;19.42;74.10
8641;BME280;4358;42.100;25.222;2023-05-12T09:59:23;100619.75;;;19.50;75.43
8641;BME280;4358;42.100;25.222;2023-05-12T10:01:54;100625.59;;;20.11;73.31
8641;BME280;4358;42.100;25.222;2023-05-12T10:04:23;100612.97;;;20.58;71.34
8641;BME280;4358;42.100;25.222;2023-05-12T10:06:51;100617.50;;;20.85;71.47
8641;BME280;4358;42.100;25.222;2023-05-12T10:09:20;100612.81;;;20.87;70.16
8641;BME280;4358;42.100;25.222;2023-05-12T10:11:49;100619.09;;;20.78;70.80
8641;BME280;4358;42.100;25.222;2023-05-12T10:14:18;100619.66;;;20.82;71.49
8641;BME280;4358;42.100;25.222;2023-05-12T10:16:45;100617.84;;;21.00;70.69
8641;BME280;4358;42.100;25.222;2023-05-12T10:19:12;100616.91;;;21.19;69.59
8641;BME280;4358;42.100;25.222;2023-05-12T10:21:42;100608.50;;;21.39;68.50
8641;BME280;4358;42.100;25.222;2023-05-12T10:24:10;100606.47;;;21.59;68.89
8641;BME280;4358;42.100;25.222;2023-05-12T10:26:38;100606.56;;;20.87;71.00
8641;BME280;4358;42.100;25.222;2023-05-12T10:29:06;100600.44;;;20.67;71.76
8641;BME280;4358;42.100;25.222;2023-05-12T10:31:35;100590.91;;;20.90;72.03
8641;BME280;4358;42.100;25.222;2023-05-12T10:34:02;100589.75;;;21.38;71.34
8641;BME280;4358;42.100;25.222;2023-05-12T10:36:30;100587.09;;;21.46;70.78
8641;BME280;4358;42.100;25.222;2023-05-12T10:39:03;100593.34;;;21.64;72.18
8641;BME280;4358;42.100;25.222;2023-05-12T10:41:31;100592.84;;;21.69;70.80
8641;BME280;4358;42.100;25.222;2023-05-12T10:43:59;100591.78;;;21.62;69.63
8641;BME280;4358;42.100;25.222;2023-05-12T10:46:26;100598.69;;;21.56;68.81
8641;BME280;4358;42.100;25.222;2023-05-12T10:48:58;100591.47;;;21.11;69.56
8641;BME280;4358;42.100;25.222;2023-05-12T10:51:27;100579.94;;;20.74;71.45
8641;BME280;4358;42.100;25.222;2023-05-12T10:53:58;100587.09;;;20.38;72.65
8641;BME280;4358;42.100;25.222;2023-05-12T10:56:27;100581.69;;;20.01;74.00
8641;BME280;4358;42.100;25.222;2023-05-12T10:59:09;100557.09;;;19.38;75.60
8641;BME280;4358;42.100;25.222;2023-05-12T11:01:37;100574.66;;;19.42;76.18
8641;BME280;4358;42.100;25.222;2023-05-12T11:04:13;100575.25;;;19.36;75.68
8641;BME280;4358;42.100;25.222;2023-05-12T11:06:41;100564.63;;;19.25;74.95
8641;BME280;4358;42.100;25.222;2023-05-12T11:09:08;100569.03;;;19.45;74.95
8641;BME280;4358;42.100;25.222;2023-05-12T11:11:36;100553.97;;;19.72;74.18
8641;BME280;4358;42.100;25.222;2023-05-12T11:14:03;100561.66;;;20.13;73.60
8641;BME280;4358;42.100;25.222;2023-05-12T11:16:30;100558.19;;;20.21;73.51
8641;BME280;4358;42.100;25.222;2023-05-12T11:19:03;100561.50;;;20.05;73.94
8641;BME280;4358;42.100;25.222;2023-05-12T11:21:32;100557.91;;;19.87;73.66
8641;BME280;4358;42.100;25.222;2023-05-12T11:24:00;100555.69;;;19.63;74.07
8641;BME280;4358;42.100;25.222;2023-05-12T11:26:27;100544.63;;;19.66;75.13
8641;BME280;4358;42.100;25.222;2023-05-12T11:29:03;100561.25;;;20.08;75.32
8641;BME280;4358;42.100;25.222;2023-05-12T11:31:30;100556.53;;;20.47;73.49
8641;BME280;4358;42.100;25.222;2023-05-12T11:34:03;100565.28;;;20.59;73.02
8641;BME280;4358;42.100;25.222;2023-05-12T11:36:36;100561.41;;;21.06;72.74
8641;BME280;4358;42.100;25.222;2023-05-12T11:39:03;100550.00;;;21.30;71.52
8641;BME280;4358;42.100;25.222;2023-05-12T11:41:31;100551.75;;;21.57;71.23
8641;BME280;4358;42.100;25.222;2023-05-12T11:43:58;100557.47;;;21.54;70.71
8641;BME280;4358;42.100;25.222;2023-05-12T11:46:26;100563.34;;;21.32;69.36
8641;BME280;4358;42.100;25.222;2023-05-12T11:48:56;100547.84;;;20.98;70.74
8641;BME280;4358;42.100;25.222;2023-05-12T11:51:24;100550.94;;;21.03;71.25
8641;BME280;4358;42.100;25.222;2023-05-12T11:53:52;100553.63;;;21.39;71.70
8641;BME280;4358;42.100;25.222;2023-05-12T11:56:21;100544.69;;;21.38;72.06
8641;BME280;4358;42.100;25.222;2023-05-12T11:58:53;100553.56;;;20.68;73.28
8641;BME280;4358;42.100;25.222;2023-05-12T12:01:20;100547.91;;;21.06;73.08
8641;BME280;4358;42.100;25.222;2023-05-12T12:03:48;100543.84;;;21.38;70.65
8641;BME280;4358;42.100;25.222;2023-05-12T12:06:15;100539.78;;;21.85;68.09
8641;BME280;4358;42.100;25.222;2023-05-12T12:08:49;100535.53;;;22.09;66.20
8641;BME280;4358;42.100;25.222;2023-05-12T12:11:18;100521.09;;;22.26;65.59
8641;BME280;4358;42.100;25.222;2023-05-12T12:13:49;100529.13;;;22.52;65.91
8641;BME280;4358;42.100;25.222;2023-05-12T12:16:22;100538.03;;;22.28;66.65
8641;BME280;4358;42.100;25.222;2023-05-12T12:18:49;100538.94;;;22.11;67.08
8641;BME280;4358;42.100;25.222;2023-05-12T12:21:16;100525.41;;;22.03;67.89
8641;BME280;4358;42.100;25.222;2023-05-12T12:23:43;100529.34;;;21.90;67.60
8641;BME280;4358;42.100;25.222;2023-05-12T12:26:10;100536.72;;;21.80;67.88
8641;BME280;4358;42.100;25.222;2023-05-12T12:28:38;100526.53;;;21.74;65.09
8641;BME280;4358;42.100;25.222;2023-05-12T12:31:05;100522.00;;;21.75;64.23
8641;BME280;4358;42.100;25.222;2023-05-12T12:33:32;100517.53;;;21.66;64.67
8641;BME280;4358;42.100;25.222;2023-05-12T12:35:58;100528.13;;;21.59;65.19
8641;BME280;4358;42.100;25.222;2023-05-12T12:38:27;100527.44;;;21.57;62.73
8641;BME280;4358;42.100;25.222;2023-05-12T12:40:55;100519.81;;;21.78;59.47
8641;BME280;4358;42.100;25.222;2023-05-12T12:43:22;100516.69;;;21.91;55.03
8641;BME280;4358;42.100;25.222;2023-05-12T12:45:50;100509.13;;;21.94;52.65
8641;BME280;4358;42.100;25.222;2023-05-12T12:48:17;100507.78;;;21.73;52.83
8641;BME280;4358;42.100;25.222;2023-05-12T12:50:44;100522.28;;;21.46;52.81
8641;BME280;4358;42.100;25.222;2023-05-12T12:53:10;100508.16;;;21.78;50.57
8641;BME280;4358;42.100;25.222;2023-05-12T12:55:37;100512.78;;;22.19;48.65
8641;BME280;4358;42.100;25.222;2023-05-12T12:58:04;100517.72;;;22.24;48.70